sensor_id;sensor_type;location;lat;lon;timestamp;temperature;humidity
59146;DHT22;44928;53.074;6.646;2023-11-19T00:00:33;11.20;99.90
59146;DHT22;44928;53.074;6.646;2023-11-19T00:02:59;11.30;99.90
59146;DHT22;44928;53.074;6.646;2023-11-19T00:05:25;11.30;99.90
59146;DHT22;44928;53.074;6.646;2023-11-19T00:07:52;11.30;99.90
59146;DHT22;44928;53.074;6.646;2023-11-19T00:10:17;11.40;99.90
59146;DHT22;44928;53.074;6.646;2023-11-19T00:12:46;11.40;99.90
59146;DHT22;44928;53.074;6.646;2023-11-19T00:15:12;11.40;99.90
59146;DHT22;44928;53.074;6.646;2023-11-19T00:17:39;11.40;99.90
59146;DHT22;44928;53.074;6.646;2023-11-19T00:20:20;11.50;99.90
59146;DHT22;44928;53.074;6.646;2023-11-19T00:22:49;11.50;99.90
59146;DHT22;44928;53.074;6.646;2023-11-19T00:25:19;11.50;99.90
59146;DHT22;44928;53.074;6.646;2023-11-19T00:27:45;11.50;99.90
59146;DHT22;44928;53.074;6.646;2023-11-19T00:30:11;11.60;99.90
59146;DHT22;44928;53.074;6.646;2023-11-19T00:32:37;11.60;99.90
59146;DHT22;44928;53.074;6.646;2023-11-19T00:35:05;11.60;99.90
59146;DHT22;44928;53.074;6.646;2023-11-19T00:37:31;11.70;99.90
59146;DHT22;44928;53.074;6.646;2023-11-19T00:39:57;11.70;99.90
59146;DHT22;44928;53.074;6.646;2023-11-19T00:42:23;11.80;99.90
59146;DHT22;44928;53.074;6.646;2023-11-19T00:44:52;11.80;99.90
59146;DHT22;44928;53.074;6.646;2023-11-19T00:47:18;11.90;99.90
59146;DHT22;44928;53.074;6.646;2023-11-19T00:49:47;11.90;99.90
59146;DHT22;44928;53.074;6.646;2023-11-19T00:52:17;11.90;99.90
59146;DHT22;44928;53.074;6.646;2023-11-19T00:54:43;12.00;99.90
59146;DHT22;44928;53.074;6.646;2023-11-19T00:57:09;12.00;99.90
59146;DHT22;44928;53.074;6.646;2023-11-19T00:59:35;12.10;99.90
59146;DHT22;44928;53.074;6.646;2023-11-19T01:02:01;12.10;99.90
59146;DHT22;44928;53.074;6.646;2023-11-19T01:04:35;12.10;99.90
59146;DHT22;44928;53.074;6.646;2023-11-19T01:07:04;12.10;99.90
59146;DHT22;44928;53.074;6.646;2023-11-19T01:09:33;12.20;99.90
59146;DHT22;44928;53.074;6.646;2023-11-19T01:12:00;12.20;99.90
59146;DHT22;44928;53.074;6.646;2023-11-19T01:14:27;12.20;99.90
59146;DHT22;44928;53.074;6.646;2023-11-19T01:16:53;12.20;99.90
59146;DHT22;44928;53.074;6.646;2023-11-19T01:19:22;12.20;99.90
59146;DHT22;44928;53.074;6.646;2023-11-19T01:21:49;12.20;99.90
59146;DHT22;44928;53.074;6.646;2023-11-19T01:24:15;12.20;99.90
59146;DHT22;44928;53.074;6.646;2023-11-19T01:26:41;12.20;99.90
59146;DHT22;44928;53.074;6.646;2023-11-19T01:29:13;12.30;99.90
59146;DHT22;44928;53.074;6.646;2023-11-19T01:31:42;12.30;99.90
59146;DHT22;44928;53.074;6.646;2023-11-19T01:34:09;12.30;99.90
59146;DHT22;44928;53.074;6.646;2023-11-19T01:36:35;12.30;99.90
59146;DHT22;44928;53.074;6.646;2023-11-19T01:39:01;12.30;99.90
59146;DHT22;44928;53.074;6.646;2023-11-19T01:41:28;12.30;99.90
59146;DHT22;44928;53.074;6.646;2023-11-19T01:43:54;12.30;99.90
59146;DHT22;44928;53.074;6.646;2023-11-19T01:46:20;12.30;99.90
59146;DHT22;44928;53.074;6.646;2023-11-19T01:48:46;12.30;99.90
59146;DHT22;44928;53.074;6.646;2023-11-19T01:51:16;12.30;99.90
59146;DHT22;44928;53.074;6.646;2023-11-19T01:53:43;12.40;99.90
59146;DHT22;44928;53.074;6.646;2023-11-19T01:56:11;12.40;99.90
59146;DHT22;44928;53.074;6.646;2023-11-19T01:58:39;12.40;99.90
59146;DHT22;44928;53.074;6.646;2023-11-19T02:01:06;12.40;99.90
59146;DHT22;44928;53.074;6.646;2023-11-19T02:03:33;12.40;99.90
59146;DHT22;44928;53.074;6.646;2023-11-19T02:06:00;12.30;99.90
59146;DHT22;44928;53.074;6.646;2023-11-19T02:08:26;12.30;99.90
59146;DHT22;44928;53.074;6.646;2023-11-19T02:10:52;12.40;99.90
59146;DHT22;44928;53.074;6.646;2023-11-19T02:13:20;12.30;99.90
59146;DHT22;44928;53.074;6.646;2023-11-19T02:15:46;12.30;99.90
59146;DHT22;44928;53.074;6.646;2023-11-19T02:18:19;12.30;99.90
59146;DHT22;44928;53.074;6.646;2023-11-19T02:20:45;12.30;99.90
59146;DHT22;44928;53.074;6.646;2023-11-19T02:23:13;12.30;99.90
59146;DHT22;44928;53.074;6.646;2023-11-19T02:25:40;12.30;99.90
59146;DHT22;44928;53.074;6.646;2023-11-19T02:28:06;12.30;99.90
59146;DHT22;44928;53.074;6.646;2023-11-19T02:30:32;12.30;99.90
59146;DHT22;44928;53.074;6.646;2023-11-19T02:32:59;12.30;99.90
59146;DHT22;44928;53.074;6.646;2023-11-19T02:35:28;12.30;99.90
59146;DHT22;44928;53.074;6.646;2023-11-19T02:37:58;12.30;99.90
59146;DHT22;44928;53.074;6.646;2023-11-19T02:40:24;12.30;99.90
59146;DHT22;44928;53.074;6.646;2023-11-19T02:42:53;12.30;99.90
59146;DHT22;44928;53.074;6.646;2023-11-19T02:45:24;12.40;99.90
59146;DHT22;44928;53.074;6.646;2023-11-19T02:47:51;12.40;99.90
59146;DHT22;44928;53.074;6.646;2023-11-19T02:50:20;12.40;99.90
59146;DHT22;44928;53.074;6.646;2023-11-19T02:52:54;12.40;99.90
59146;DHT22;44928;53.074;6.646;2023-11-19T02:55:22;12.40;99.90
59146;DHT22;44928;53.074;6.646;2023-11-19T02:57:49;12.40;99.90
59146;DHT22;44928;53.074;6.646;2023-11-19T03:00:16;12.40;99.90
59146;DHT22;44928;53.074;6.646;2023-11-19T03:02:45;12.40;99.90
59146;DHT22;44928;53.074;6.646;2023-11-19T03:05:12;12.30;99.90
59146;DHT22;44928;53.074;6.646;2023-11-19T03:07:41;12.30;99.90
59146;DHT22;44928;53.074;6.646;2023-11-19T03:10:09;12.30;99.90
59146;DHT22;44928;53.074;6.646;2023-11-19T03:12:38;12.30;99.90
59146;DHT22;44928;53.074;6.646;2023-11-19T03:15:04;12.30;99.90
59146;DHT22;44928;53.074;6.646;2023-11-19T03:17:30;12.30;99.90
59146;DHT22;44928;53.074;6.646;2023-11-19T03:19:56;12.30;99.90
59146;DHT22;44928;53.074;6.646;2023-11-19T03:22:22;12.30;99.90
59146;DHT22;44928;53.074;6.646;2023-11-19T03:24:51;12.40;99.90
59146;DHT22;44928;53.074;6.646;2023-11-19T03:27:17;12.30;99.90
59146;DHT22;44928;53.074;6.646;2023-11-19T03:29:42;12.30;99.90
59146;DHT22;44928;53.074;6.646;2023-11-19T03:32:08;12.30;99.90
59146;DHT22;44928;53.074;6.646;2023-11-19T03:34:34;12.30;99.90
59146;DHT22;44928;53.074;6.646;2023-11-19T03:37:00;12.40;99.90
59146;DHT22;44928;53.074;6.646;2023-11-19T03:39:26;12.30;99.90
59146;DHT22;44928;53.074;6.646;2023-11-19T03:41:52;12.30;99.90
59146;DHT22;44928;53.074;6.646;2023-11-19T03:44:18;12.30;99.90
59146;DHT22;44928;53.074;6.646;2023-11-19T03:46:44;12.30;99.90
59146;DHT22;44928;53.074;6.646;2023-11-19T03:49:11;12.40;99.90
59146;DHT22;44928;53.074;6.646;2023-11-19T03:51:37;12.30;99.90
59146;DHT22;44928;53.074;6.646;2023-11-19T03:54:03;12.40;99.90
59146;DHT22;44928;53.074;6.646;2023-11-19T03:56:29;12.30;99.90
59146;DHT22;44928;53.074;6.646;2023-11-19T03:58:56;12.40;99.90
59146;DHT22;44928;53.074;6.646;2023-11-19T04:01:22;12.30;99.90
59146;DHT22;44928;53.074;6.646;2023-11-19T04:03:48;12.30;99.90
59146;DHT22;44928;53.074;6.646;2023-11-19T04:06:13;12.30;99.90
59146;DHT22;44928;53.074;6.646;2023-11-19T04:08:39;12.30;99.90
59146;DHT22;44928;53.074;6.646;2023-11-19T04:11:05;12.30;99.90
59146;DHT22;44928;53.074;6.646;2023-11-19T04:13:31;12.40;99.90
59146;DHT22;44928;53.074;6.646;2023-11-19T04:15:57;12.30;99.90
59146;DHT22;44928;53.074;6.646;2023-11-19T04:18:22;12.30;99.90
59146;DHT22;44928;53.074;6.646;2023-11-19T04:20:49;12.30;99.90
59146;DHT22;44928;53.074;6.646;2023-11-19T04:23:16;12.30;99.90
59146;DHT22;44928;53.074;6.646;2023-11-19T04:25:42;12.30;99.90
59146;DHT22;44928;53.074;6.646;2023-11-19T04:28:08;12.30;99.90
59146;DHT22;44928;53.074;6.646;2023-11-19T04:30:33;12.30;99.90
59146;DHT22;44928;53.074;6.646;2023-11-19T04:33:00;12.30;99.90
59146;DHT22;44928;53.074;6.646;2023-11-19T04:35:26;12.20;99.90
59146;DHT22;44928;53.074;6.646;2023-11-19T04:37:52;12.20;99.90
59146;DHT22;44928;53.074;6.646;2023-11-19T04:40:18;12.20;99.90
59146;DHT22;44928;53.074;6.646;2023-11-19T04:42:44;12.20;99.90
59146;DHT22;44928;53.074;6.646;2023-11-19T04:45:10;12.20;99.90
59146;DHT22;44928;53.074;6.646;2023-11-19T04:47:36;12.20;99.90
59146;DHT22;44928;53.074;6.646;2023-11-19T04:50:02;12.20;99.90
59146;DHT22;44928;53.074;6.646;2023-11-19T04:52:29;12.20;99.90
59146;DHT22;44928;53.074;6.646;2023-11-19T04:54:55;12.10;99.90
59146;DHT22;44928;53.074;6.646;2023-11-19T04:57:20;12.10;99.90
59146;DHT22;44928;53.074;6.646;2023-11-19T04:59:46;12.10;99.90
59146;DHT22;44928;53.074;6.646;2023-11-19T05:02:12;12.10;99.90
59146;DHT22;44928;53.074;6.646;2023-11-19T05:04:42;12.10;99.90
59146;DHT22;44928;53.074;6.646;2023-11-19T05:07:09;12.10;99.90
59146;DHT22;44928;53.074;6.646;2023-11-19T05:09:35;12.10;99.90
59146;DHT22;44928;53.074;6.646;2023-11-19T05:12:01;12.10;99.90
59146;DHT22;44928;53.074;6.646;2023-11-19T05:14:27;12.00;99.90
59146;DHT22;44928;53.074;6.646;2023-11-19T05:16:53;12.00;99.90
59146;DHT22;44928;53.074;6.646;2023-11-19T05:19:19;12.10;99.90
59146;DHT22;44928;53.074;6.646;2023-11-19T05:21:45;12.10;99.90
59146;DHT22;44928;53.074;6.646;2023-11-19T05:24:11;12.00;99.90
59146;DHT22;44928;53.074;6.646;2023-11-19T05:26:39;12.00;99.90
59146;DHT22;44928;53.074;6.646;2023-11-19T05:29:06;12.00;99.90
59146;DHT22;44928;53.074;6.646;2023-11-19T05:31:32;12.00;99.90
59146;DHT22;44928;53.074;6.646;2023-11-19T05:33:57;11.90;99.90
59146;DHT22;44928;53.074;6.646;2023-11-19T05:36:23;11.90;99.90
59146;DHT22;44928;53.074;6.646;2023-11-19T05:38:49;11.90;99.90
59146;DHT22;44928;53.074;6.646;2023-11-19T05:41:14;11.90;99.90
59146;DHT22;44928;53.074;6.646;2023-11-19T05:43:40;11.90;99.90
59146;DHT22;44928;53.074;6.646;2023-11-19T05:46:07;11.80;99.90
59146;DHT22;44928;53.074;6.646;2023-11-19T05:48:33;11.90;99.90
59146;DHT22;44928;53.074;6.646;2023-11-19T05:50:58;11.80;99.90
59146;DHT22;44928;53.074;6.646;2023-11-19T05:53:25;11.80;99.90
59146;DHT22;44928;53.074;6.646;2023-11-19T05:55:51;11.90;99.90
59146;DHT22;44928;53.074;6.646;2023-11-19T05:58:25;11.90;99.90
59146;DHT22;44928;53.074;6.646;2023-11-19T06:00:52;11.90;99.90
59146;DHT22;44928;53.074;6.646;2023-11-19T06:03:18;11.90;99.90
59146;DHT22;44928;53.074;6.646;2023-11-19T06:05:47;11.90;99.90
59146;DHT22;44928;53.074;6.646;2023-11-19T06:08:13;11.90;99.90
59146;DHT22;44928;53.074;6.646;2023-11-19T06:10:44;11.90;99.90
59146;DHT22;44928;53.074;6.646;2023-11-19T06:13:15;11.90;99.90
59146;DHT22;44928;53.074;6.646;2023-11-19T06:15:44;11.90;99.90
59146;DHT22;44928;53.074;6.646;2023-11-19T06:18:10;11.90;99.90
59146;DHT22;44928;53.074;6.646;2023-11-19T06:20:37;11.90;99.90
59146;DHT22;44928;53.074;6.646;2023-11-19T06:23:03;11.90;99.90
59146;DHT22;44928;53.074;6.646;2023-11-19T06:25:29;11.90;99.90
59146;DHT22;44928;53.074;6.646;2023-11-19T06:27:55;11.80;99.90
59146;DHT22;44928;53.074;6.646;2023-11-19T06:30:22;11.80;99.90
59146;DHT22;44928;53.074;6.646;2023-11-19T06:32:48;11.80;99.90
59146;DHT22;44928;53.074;6.646;2023-11-19T06:35:13;11.80;99.90
59146;DHT22;44928;53.074;6.646;2023-11-19T06:37:40;11.80;99.90
59146;DHT22;44928;53.074;6.646;2023-11-19T06:40:07;11.80;99.90
59146;DHT22;44928;53.074;6.646;2023-11-19T06:42:35;11.80;99.90
59146;DHT22;44928;53.074;6.646;2023-11-19T06:45:01;11.80;99.90
59146;DHT22;44928;53.074;6.646;2023-11-19T06:47:28;11.80;99.90
59146;DHT22;44928;53.074;6.646;2023-11-19T06:49:54;11.80;99.90
59146;DHT22;44928;53.074;6.646;2023-11-19T06:52:20;11.80;99.90
59146;DHT22;44928;53.074;6.646;2023-11-19T06:54:46;11.80;99.90
59146;DHT22;44928;53.074;6.646;2023-11-19T06:57:12;11.80;99.90
59146;DHT22;44928;53.074;6.646;2023-11-19T06:59:39;11.80;99.90
59146;DHT22;44928;53.074;6.646;2023-11-19T07:02:05;11.70;99.90
59146;DHT22;44928;53.074;6.646;2023-11-19T07:04:32;11.70;99.90
59146;DHT22;44928;53.074;6.646;2023-11-19T07:06:59;11.70;99.90
59146;DHT22;44928;53.074;6.646;2023-11-19T07:09:25;11.70;99.90
59146;DHT22;44928;53.074;6.646;2023-11-19T07:11:51;11.70;99.90
59146;DHT22;44928;53.074;6.646;2023-11-19T07:14:18;11.70;99.90
59146;DHT22;44928;53.074;6.646;2023-11-19T07:16:44;11.70;99.90
59146;DHT22;44928;53.074;6.646;2023-11-19T07:19:11;11.70;99.90
59146;DHT22;44928;53.074;6.646;2023-11-19T07:21:36;11.70;99.90
59146;DHT22;44928;53.074;6.646;2023-11-19T07:24:05;11.70;99.90
59146;DHT22;44928;53.074;6.646;2023-11-19T07:26:31;11.70;99.90
59146;DHT22;44928;53.074;6.646;2023-11-19T07:28:57;11.70;99.90
59146;DHT22;44928;53.074;6.646;2023-11-19T07:31:23;11.70;99.90
59146;DHT22;44928;53.074;6.646;2023-11-19T07:33:49;11.70;99.90
59146;DHT22;44928;53.074;6.646;2023-11-19T07:36:15;11.70;99.90
59146;DHT22;44928;53.074;6.646;2023-11-19T07:38:42;11.60;99.90
59146;DHT22;44928;53.074;6.646;2023-11-19T07:41:08;11.60;99.90
59146;DHT22;44928;53.074;6.646;2023-11-19T07:43:44;11.70;99.90
59146;DHT22;44928;53.074;6.646;2023-11-19T07:46:12;11.60;99.90
59146;DHT22;44928;53.074;6.646;2023-11-19T07:48:39;11.60;99.90
59146;DHT22;44928;53.074;6.646;2023-11-19T07:51:05;11.60;99.90
59146;DHT22;44928;53.074;6.646;2023-11-19T07:53:31;11.60;99.90
59146;DHT22;44928;53.074;6.646;2023-11-19T07:55:58;11.60;99.90
59146;DHT22;44928;53.074;6.646;2023-11-19T07:58:25;11.60;99.90
59146;DHT22;44928;53.074;6.646;2023-11-19T08:00:51;11.60;99.90
59146;DHT22;44928;53.074;6.646;2023-11-19T08:03:18;11.60;99.90
59146;DHT22;44928;53.074;6.646;2023-11-19T08:05:47;11.60;99.90
59146;DHT22;44928;53.074;6.646;2023-11-19T08:08:13;11.60;99.90
59146;DHT22;44928;53.074;6.646;2023-11-19T08:10:40;11.60;99.90
59146;DHT22;44928;53.074;6.646;2023-11-19T08:13:06;11.60;99.90
59146;DHT22;44928;53.074;6.646;2023-11-19T08:15:33;11.60;99.90
59146;DHT22;44928;53.074;6.646;2023-11-19T08:17:58;11.60;99.90
59146;DHT22;44928;53.074;6.646;2023-11-19T08:20:24;11.60;99.90
59146;DHT22;44928;53.074;6.646;2023-11-19T08:22:50;11.70;99.90
59146;DHT22;44928;53.074;6.646;2023-11-19T08:25:16;11.70;99.90
59146;DHT22;44928;53.074;6.646;2023-11-19T08:27:42;11.70;99.90
59146;DHT22;44928;53.074;6.646;2023-11-19T08:30:08;11.70;99.90
59146;DHT22;44928;53.074;6.646;2023-11-19T08:32:34;11.70;99.90
59146;DHT22;44928;53.074;6.646;2023-11-19T08:35:01;11.80;99.90
59146;DHT22;44928;53.074;6.646;2023-11-19T08:37:26;11.80;99.90
59146;DHT22;44928;53.074;6.646;2023-11-19T08:39:52;11.80;99.90
59146;DHT22;44928;53.074;6.646;2023-11-19T08:42:18;11.80;99.90
59146;DHT22;44928;53.074;6.646;2023-11-19T08:44:49;11.80;99.90
59146;DHT22;44928;53.074;6.646;2023-11-19T08:47:16;11.80;99.90
59146;DHT22;44928;53.074;6.646;2023-11-19T08:49:44;11.70;99.90
59146;DHT22;44928;53.074;6.646;2023-11-19T08:52:10;11.70;99.90
59146;DHT22;44928;53.074;6.646;2023-11-19T08:54:42;11.70;99.90
59146;DHT22;44928;53.074;6.646;2023-11-19T08:57:08;11.60;99.90
59146;DHT22;44928;53.074;6.646;2023-11-19T08:59:34;11.60;99.90
59146;DHT22;44928;53.074;6.646;2023-11-19T09:02:00;11.50;99.90
59146;DHT22;44928;53.074;6.646;2023-11-19T09:04:27;11.50;99.90
59146;DHT22;44928;53.074;6.646;2023-11-19T09:06:53;11.50;99.90
59146;DHT22;44928;53.074;6.646;2023-11-19T09:09:19;11.50;99.90
59146;DHT22;44928;53.074;6.646;2023-11-19T09:11:44;11.40;99.90
59146;DHT22;44928;53.074;6.646;2023-11-19T09:14:10;11.40;99.90
59146;DHT22;44928;53.074;6.646;2023-11-19T09:16:36;11.40;99.90
59146;DHT22;44928;53.074;6.646;2023-11-19T09:19:02;11.40;99.90
59146;DHT22;44928;53.074;6.646;2023-11-19T09:21:28;11.50;99.90
59146;DHT22;44928;53.074;6.646;2023-11-19T09:23:57;11.50;99.90
59146;DHT22;44928;53.074;6.646;2023-11-19T09:26:22;11.50;99.90
59146;DHT22;44928;53.074;6.646;2023-11-19T09:28:48;11.50;99.90
59146;DHT22;44928;53.074;6.646;2023-11-19T09:31:18;11.60;99.90
59146;DHT22;44928;53.074;6.646;2023-11-19T09:33:44;11.60;99.90
59146;DHT22;44928;53.074;6.646;2023-11-19T09:36:12;11.60;99.90
59146;DHT22;44928;53.074;6.646;2023-11-19T09:38:45;11.60;99.90
59146;DHT22;44928;53.074;6.646;2023-11-19T09:41:11;11.60;99.90
59146;DHT22;44928;53.074;6.646;2023-11-19T09:43:42;11.70;99.90
59146;DHT22;44928;53.074;6.646;2023-11-19T09:46:13;11.70;99.90
59146;DHT22;44928;53.074;6.646;2023-11-19T09:48:40;11.70;99.90
59146;DHT22;44928;53.074;6.646;2023-11-19T09:51:09;11.70;99.90
59146;DHT22;44928;53.074;6.646;2023-11-19T09:53:35;11.70;99.90
59146;DHT22;44928;53.074;6.646;2023-11-19T09:56:03;11.80;99.90
59146;DHT22;44928;53.074;6.646;2023-11-19T09:58:30;11.80;99.90
59146;DHT22;44928;53.074;6.646;2023-11-19T10:00:59;11.80;99.90
59146;DHT22;44928;53.074;6.646;2023-11-19T10:03:35;11.80;99.90
59146;DHT22;44928;53.074;6.646;2023-11-19T10:06:04;11.80;99.90
59146;DHT22;44928;53.074;6.646;2023-11-19T10:08:30;11.80;99.90
59146;DHT22;44928;53.074;6.646;2023-11-19T10:10:56;11.80;99.90
59146;DHT22;44928;53.074;6.646;2023-11-19T10:13:31;11.90;99.90
59146;DHT22;44928;53.074;6.646;2023-11-19T10:15:57;11.90;99.90
59146;DHT22;44928;53.074;6.646;2023-11-19T10:18:26;11.90;99.90
59146;DHT22;44928;53.074;6.646;2023-11-19T10:20:52;11.90;99.90
59146;DHT22;44928;53.074;6.646;2023-11-19T10:23:19;12.00;99.90
59146;DHT22;44928;53.074;6.646;2023-11-19T10:25:45;12.00;99.90
59146;DHT22;44928;53.074;6.646;2023-11-19T10:28:11;12.00;99.90
59146;DHT22;44928;53.074;6.646;2023-11-19T10:30:36;12.00;99.90
59146;DHT22;44928;53.074;6.646;2023-11-19T10:33:03;12.00;99.90
59146;DHT22;44928;53.074;6.646;2023-11-19T10:35:29;12.00;99.90
59146;DHT22;44928;53.074;6.646;2023-11-19T10:37:55;12.00;99.90
59146;DHT22;44928;53.074;6.646;2023-11-19T10:40:21;12.00;99.90
59146;DHT22;44928;53.074;6.646;2023-11-19T10:42:47;11.90;99.90
59146;DHT22;44928;53.074;6.646;2023-11-19T10:45:23;11.90;99.90
59146;DHT22;44928;53.074;6.646;2023-11-19T10:47:51;11.90;99.90
59146;DHT22;44928;53.074;6.646;2023-11-19T10:50:18;11.90;99.90
59146;DHT22;44928;53.074;6.646;2023-11-19T10:52:44;11.90;99.90
59146;DHT22;44928;53.074;6.646;2023-11-19T10:55:15;11.90;99.90
59146;DHT22;44928;53.074;6.646;2023-11-19T10:57:45;11.90;99.90
59146;DHT22;44928;53.074;6.646;2023-11-19T11:00:13;11.90;99.90
59146;DHT22;44928;53.074;6.646;2023-11-19T11:02:45;11.80;99.90
59146;DHT22;44928;53.074;6.646;2023-11-19T11:05:14;11.80;99.90
59146;DHT22;44928;53.074;6.646;2023-11-19T11:07:40;11.80;99.90
59146;DHT22;44928;53.074;6.646;2023-11-19T11:10:07;11.70;99.90
59146;DHT22;44928;53.074;6.646;2023-11-19T11:12:36;11.70;99.90
59146;DHT22;44928;53.074;6.646;2023-11-19T11:15:04;11.70;99.90
59146;DHT22;44928;53.074;6.646;2023-11-19T11:17:32;11.70;99.90
59146;DHT22;44928;53.074;6.646;2023-11-19T11:19:59;11.70;99.90
59146;DHT22;44928;53.074;6.646;2023-11-19T11:22:25;11.70;99.90
59146;DHT22;44928;53.074;6.646;2023-11-19T11:25:01;11.70;99.90
59146;DHT22;44928;53.074;6.646;2023-11-19T11:33:06;11.90;99.90
59146;DHT22;44928;53.074;6.646;2023-11-19T11:38:27;11.90;99.90
59146;DHT22;44928;53.074;6.646;2023-11-19T11:41:19;12.00;99.90
59146;DHT22;44928;53.074;6.646;2023-11-19T11:43:45;12.00;99.90
59146;DHT22;44928;53.074;6.646;2023-11-19T11:49:08;12.00;99.90
59146;DHT22;44928;53.074;6.646;2023-11-19T12:02:08;12.00;99.90
59146;DHT22;44928;53.074;6.646;2023-11-19T12:04:35;12.10;99.90
59146;DHT22;44928;53.074;6.646;2023-11-19T12:07:11;12.10;99.90
59146;DHT22;44928;53.074;6.646;2023-11-19T12:09:40;12.10;99.90
59146;DHT22;44928;53.074;6.646;2023-11-19T12:12:27;12.10;99.90
59146;DHT22;44928;53.074;6.646;2023-11-19T12:20:06;12.20;99.90
59146;DHT22;44928;53.074;6.646;2023-11-19T12:22:38;12.20;99.90
59146;DHT22;44928;53.074;6.646;2023-11-19T12:25:09;12.20;99.90
59146;DHT22;44928;53.074;6.646;2023-11-19T12:27:41;12.30;99.90
59146;DHT22;44928;53.074;6.646;2023-11-19T12:30:07;12.30;99.90
59146;DHT22;44928;53.074;6.646;2023-11-19T12:32:41;12.30;99.90
59146;DHT22;44928;53.074;6.646;2023-11-19T12:35:09;12.30;99.90
59146;DHT22;44928;53.074;6.646;2023-11-19T12:37:41;12.30;99.90
59146;DHT22;44928;53.074;6.646;2023-11-19T12:40:28;12.30;99.90
59146;DHT22;44928;53.074;6.646;2023-11-19T12:42:55;12.30;99.90
59146;DHT22;44928;53.074;6.646;2023-11-19T12:45:21;12.30;99.90
59146;DHT22;44928;53.074;6.646;2023-11-19T12:47:49;12.30;99.90
59146;DHT22;44928;53.074;6.646;2023-11-19T12:50:18;12.30;99.90
59146;DHT22;44928;53.074;6.646;2023-11-19T12:52:55;12.30;99.90
59146;DHT22;44928;53.074;6.646;2023-11-19T12:55:29;12.30;99.90
59146;DHT22;44928;53.074;6.646;2023-11-19T12:57:55;12.30;99.90
59146;DHT22;44928;53.074;6.646;2023-11-19T13:00:23;12.30;99.90
59146;DHT22;44928;53.074;6.646;2023-11-19T13:02:53;12.30;99.90
59146;DHT22;44928;53.074;6.646;2023-11-19T13:05:27;12.30;99.90
59146;DHT22;44928;53.074;6.646;2023-11-19T13:10:27;12.40;99.90
59146;DHT22;44928;53.074;6.646;2023-11-19T13:13:04;12.40;99.90
59146;DHT22;44928;53.074;6.646;2023-11-19T13:15:29;12.40;99.90
59146;DHT22;44928;53.074;6.646;2023-11-19T13:17:55;12.40;99.90
59146;DHT22;44928;53.074;6.646;2023-11-19T13:20:21;12.40;99.90
59146;DHT22;44928;53.074;6.646;2023-11-19T13:25:23;12.50;99.90
59146;DHT22;44928;53.074;6.646;2023-11-19T13:27:49;12.40;99.90
59146;DHT22;44928;53.074;6.646;2023-11-19T13:30:15;12.40;99.90
59146;DHT22;44928;53.074;6.646;2023-11-19T13:32:42;12.40;99.90
59146;DHT22;44928;53.074;6.646;2023-11-19T13:35:09;12.40;99.90
59146;DHT22;44928;53.074;6.646;2023-11-19T13:37:35;12.40;99.90
59146;DHT22;44928;53.074;6.646;2023-11-19T13:40:00;12.40;99.90
59146;DHT22;44928;53.074;6.646;2023-11-19T13:42:26;12.40;99.90
59146;DHT22;44928;53.074;6.646;2023-11-19T13:44:53;12.30;99.90
59146;DHT22;44928;53.074;6.646;2023-11-19T13:47:18;12.30;99.90
59146;DHT22;44928;53.074;6.646;2023-11-19T13:49:47;12.30;99.90
59146;DHT22;44928;53.074;6.646;2023-11-19T13:52:13;12.30;99.90
59146;DHT22;44928;53.074;6.646;2023-11-19T13:54:39;12.30;99.90
59146;DHT22;44928;53.074;6.646;2023-11-19T13:57:04;12.30;99.90
59146;DHT22;44928;53.074;6.646;2023-11-19T13:59:33;12.30;99.90
59146;DHT22;44928;53.074;6.646;2023-11-19T14:01:59;12.30;99.90
59146;DHT22;44928;53.074;6.646;2023-11-19T14:04:25;12.30;99.90
59146;DHT22;44928;53.074;6.646;2023-11-19T14:06:51;12.30;99.90
59146;DHT22;44928;53.074;6.646;2023-11-19T14:09:17;12.30;99.90
59146;DHT22;44928;53.074;6.646;2023-11-19T14:11:43;12.30;99.90
59146;DHT22;44928;53.074;6.646;2023-11-19T14:14:09;12.30;99.90
59146;DHT22;44928;53.074;6.646;2023-11-19T14:16:35;12.30;99.90
59146;DHT22;44928;53.074;6.646;2023-11-19T14:19:03;12.20;99.90
59146;DHT22;44928;53.074;6.646;2023-11-19T14:21:28;12.20;99.90
59146;DHT22;44928;53.074;6.646;2023-11-19T14:23:54;12.10;99.90
59146;DHT22;44928;53.074;6.646;2023-11-19T14:26:21;12.10;99.90
59146;DHT22;44928;53.074;6.646;2023-11-19T14:28:46;12.10;99.90
59146;DHT22;44928;53.074;6.646;2023-11-19T14:31:12;12.10;99.90
59146;DHT22;44928;53.074;6.646;2023-11-19T14:33:38;12.10;99.90
59146;DHT22;44928;53.074;6.646;2023-11-19T14:36:04;12.10;99.90
59146;DHT22;44928;53.074;6.646;2023-11-19T14:38:32;12.10;99.90
59146;DHT22;44928;53.074;6.646;2023-11-19T14:40:58;12.10;99.90
59146;DHT22;44928;53.074;6.646;2023-11-19T14:43:25;12.00;99.90
59146;DHT22;44928;53.074;6.646;2023-11-19T14:45:51;12.10;99.90
59146;DHT22;44928;53.074;6.646;2023-11-19T14:48:17;12.00;99.90
59146;DHT22;44928;53.074;6.646;2023-11-19T14:50:43;12.00;99.90
59146;DHT22;44928;53.074;6.646;2023-11-19T14:53:12;12.00;99.90
59146;DHT22;44928;53.074;6.646;2023-11-19T14:55:38;12.00;99.90
59146;DHT22;44928;53.074;6.646;2023-11-19T14:58:04;12.00;99.90
59146;DHT22;44928;53.074;6.646;2023-11-19T15:00:30;12.00;99.90
59146;DHT22;44928;53.074;6.646;2023-11-19T15:02:55;12.00;99.90
59146;DHT22;44928;53.074;6.646;2023-11-19T15:05:21;12.00;99.90
59146;DHT22;44928;53.074;6.646;2023-11-19T15:07:47;12.00;99.90
59146;DHT22;44928;53.074;6.646;2023-11-19T15:10:14;12.00;99.90
59146;DHT22;44928;53.074;6.646;2023-11-19T15:12:40;12.00;99.90
59146;DHT22;44928;53.074;6.646;2023-11-19T15:15:08;12.00;99.90
59146;DHT22;44928;53.074;6.646;2023-11-19T15:17:43;12.00;99.90
59146;DHT22;44928;53.074;6.646;2023-11-19T15:20:10;12.00;99.90
59146;DHT22;44928;53.074;6.646;2023-11-19T15:22:39;12.00;99.90
59146;DHT22;44928;53.074;6.646;2023-11-19T15:25:05;12.00;99.90
59146;DHT22;44928;53.074;6.646;2023-11-19T15:27:35;11.90;99.90
59146;DHT22;44928;53.074;6.646;2023-11-19T15:30:02;11.90;99.90
59146;DHT22;44928;53.074;6.646;2023-11-19T15:32:28;11.90;99.90
59146;DHT22;44928;53.074;6.646;2023-11-19T15:34:57;11.90;99.90
59146;DHT22;44928;53.074;6.646;2023-11-19T15:37:24;11.90;99.90
59146;DHT22;44928;53.074;6.646;2023-11-19T15:39:49;11.90;99.90
59146;DHT22;44928;53.074;6.646;2023-11-19T15:42:17;11.90;99.90
59146;DHT22;44928;53.074;6.646;2023-11-19T15:44:43;11.90;99.90
59146;DHT22;44928;53.074;6.646;2023-11-19T15:47:09;11.90;99.90
59146;DHT22;44928;53.074;6.646;2023-11-19T15:49:35;11.80;99.90
59146;DHT22;44928;53.074;6.646;2023-11-19T15:52:03;11.80;99.90
59146;DHT22;44928;53.074;6.646;2023-11-19T15:54:30;11.80;99.90
59146;DHT22;44928;53.074;6.646;2023-11-19T15:56:56;11.70;99.90
59146;DHT22;44928;53.074;6.646;2023-11-19T15:59:22;11.70;99.90
59146;DHT22;44928;53.074;6.646;2023-11-19T16:01:48;11.70;99.90